createdAt,value
2023-11-30T00:00:14.495Z,26.53
2023-11-30T00:03:17.527Z,25.93
2023-11-30T00:06:20.640Z,26.63
2023-11-30T00:09:23.618Z,28.50
2023-11-30T00:12:27.962Z,24.87
2023-11-30T00:15:30.971Z,26.85
2023-11-30T00:18:33.993Z,25.20
2023-11-30T00:21:36.884Z,24.10
2023-11-30T00:24:39.845Z,26.13
2023-11-30T00:27:44.070Z,24.90
2023-11-30T00:30:47.015Z,25.17
2023-11-30T00:33:49.956Z,25.43
2023-11-30T00:36:52.918Z,24.50
2023-11-30T00:39:55.799Z,23.83
2023-11-30T00:43:00.259Z,24.17
2023-11-30T00:46:09.572Z,25.10
2023-11-30T00:49:13.107Z,24.37
2023-11-30T00:52:16.040Z,24.17
2023-11-30T00:55:18.899Z,25.77
2023-11-30T00:58:23.152Z,28.13
2023-11-30T01:01:26.060Z,30.03
2023-11-30T01:04:28.979Z,30.03
2023-11-30T01:07:31.917Z,27.93
2023-11-30T01:10:34.823Z,27.60
2023-11-30T01:13:39.293Z,26.63
2023-11-30T01:16:42.267Z,27.07
2023-11-30T01:19:45.156Z,27.27
2023-11-30T01:22:48.719Z,28.67
2023-11-30T01:25:51.649Z,28.40
2023-11-30T01:28:55.975Z,27.87
2023-11-30T01:31:58.884Z,27.30
2023-11-30T01:35:01.824Z,28.77
2023-11-30T01:38:04.697Z,28.57
2023-11-30T01:41:08.228Z,27.70
2023-11-30T01:44:12.546Z,29.27
2023-11-30T01:47:16.073Z,31.73
2023-11-30T01:50:21.804Z,34.40
2023-11-30T01:53:24.676Z,32.90
2023-11-30T01:56:27.619Z,30.97
2023-11-30T01:59:32.204Z,29.20
2023-11-30T02:02:35.368Z,28.57
2023-11-30T02:05:39.755Z,30.07
2023-11-30T02:08:42.633Z,28.20
2023-11-30T02:11:45.633Z,29.93
2023-11-30T02:14:49.920Z,29.97
2023-11-30T02:17:52.940Z,27.00
2023-11-30T02:20:55.858Z,27.57
2023-11-30T02:24:00.225Z,28.07
2023-11-30T02:27:03.256Z,27.77
2023-11-30T02:30:07.589Z,25.70
2023-11-30T02:33:10.533Z,26.30
2023-11-30T02:36:14.934Z,27.08
2023-11-30T02:39:19.298Z,27.40
2023-11-30T02:42:22.437Z,27.13
2023-11-30T02:45:25.417Z,28.37
2023-11-30T02:48:28.392Z,25.13
2023-11-30T02:51:31.449Z,27.67
2023-11-30T02:54:36.719Z,27.92
2023-11-30T02:57:39.905Z,28.20
2023-11-30T03:00:42.856Z,26.42
2023-11-30T03:03:45.788Z,26.83
2023-11-30T03:06:51.892Z,29.15
2023-11-30T03:09:56.160Z,27.17
2023-11-30T03:13:01.952Z,24.55
2023-11-30T03:16:05.249Z,24.13
2023-11-30T03:19:16.341Z,25.10
2023-11-30T03:22:20.433Z,25.55
2023-11-30T03:25:24.675Z,25.98
2023-11-30T03:28:27.538Z,26.80
2023-11-30T03:31:30.475Z,27.55
2023-11-30T03:34:33.590Z,25.38
2023-11-30T03:37:41.450Z,26.75
2023-11-30T03:40:45.835Z,23.77
2023-11-30T03:43:48.716Z,23.98
2023-11-30T03:46:51.639Z,25.35
2023-11-30T03:49:54.678Z,26.08
2023-11-30T03:52:57.587Z,26.83
2023-11-30T03:56:05.309Z,25.83
2023-11-30T03:59:08.189Z,27.15
2023-11-30T04:02:11.145Z,25.55
2023-11-30T04:05:17.413Z,28.80
2023-11-30T04:08:20.354Z,26.85
2023-11-30T04:11:24.657Z,25.27
2023-11-30T04:14:27.594Z,27.50
2023-11-30T04:17:30.555Z,25.48
2023-11-30T04:20:33.439Z,25.85
2023-11-30T04:23:36.321Z,25.33
2023-11-30T04:26:40.575Z,25.30
2023-11-30T04:29:43.422Z,23.60
2023-11-30T04:32:46.391Z,26.70
2023-11-30T04:35:49.385Z,25.80
2023-11-30T04:38:52.262Z,24.07
2023-11-30T04:41:57.742Z,24.92
2023-11-30T04:45:00.735Z,26.48
2023-11-30T04:48:04.141Z,28.23
2023-11-30T04:51:07.919Z,26.98
2023-11-30T04:54:10.849Z,25.67
2023-11-30T04:57:15.630Z,25.55
2023-11-30T05:00:19.519Z,23.42
2023-11-30T05:03:22.941Z,25.90
2023-11-30T05:06:26.040Z,27.38
2023-11-30T05:09:29.234Z,26.50
2023-11-30T05:12:33.575Z,23.67
2023-11-30T05:15:39.446Z,24.20
2023-11-30T05:18:42.544Z,23.65
2023-11-30T05:21:45.628Z,25.60
2023-11-30T05:24:48.504Z,26.02
2023-11-30T05:27:52.827Z,26.23
2023-11-30T05:30:55.819Z,24.95
2023-11-30T05:33:58.702Z,23.73
2023-11-30T05:37:01.636Z,23.83
2023-11-30T05:40:06.865Z,23.50
2023-11-30T05:43:13.979Z,22.23
2023-11-30T05:46:16.895Z,24.83
2023-11-30T05:49:19.895Z,23.98
2023-11-30T05:52:22.853Z,22.48
2023-11-30T05:55:25.785Z,23.92
2023-11-30T05:58:30.651Z,23.20
2023-11-30T06:01:33.686Z,20.42
2023-11-30T06:04:36.690Z,25.50
2023-11-30T06:07:39.694Z,22.58
2023-11-30T06:10:42.694Z,20.00
2023-11-30T06:13:47.145Z,20.40
2023-11-30T06:16:50.011Z,23.48
2023-11-30T06:19:52.950Z,21.80
2023-11-30T06:22:56.081Z,20.17
2023-11-30T06:25:58.961Z,22.80
2023-11-30T06:29:03.254Z,21.42
2023-11-30T06:32:07.103Z,23.05
2023-11-30T06:35:10.775Z,21.55
2023-11-30T06:38:14.099Z,19.50
2023-11-30T06:41:17.013Z,22.23
2023-11-30T06:44:21.607Z,20.85
2023-11-30T06:47:24.501Z,18.15
2023-11-30T06:50:27.447Z,20.58
2023-11-30T06:53:30.742Z,17.90
2023-11-30T06:56:33.608Z,17.77
2023-11-30T06:59:37.875Z,19.00
2023-11-30T07:02:41.041Z,16.10
2023-11-30T07:05:43.992Z,20.23
2023-11-30T07:08:49.846Z,19.00
2023-11-30T07:11:52.875Z,17.08
2023-11-30T07:14:57.199Z,17.10
2023-11-30T07:18:00.315Z,21.60
2023-11-30T07:21:03.499Z,18.55
2023-11-30T07:24:07.487Z,17.67
2023-11-30T07:27:11.533Z,18.35
2023-11-30T07:30:15.992Z,16.13
2023-11-30T07:33:19.180Z,17.58
2023-11-30T07:36:22.061Z,18.58
2023-11-30T07:39:24.954Z,18.27
2023-11-30T07:42:32.988Z,19.02
2023-11-30T07:45:41.933Z,15.25
2023-11-30T07:48:45.282Z,15.70
2023-11-30T07:51:48.197Z,17.90
2023-11-30T07:54:51.087Z,16.52
2023-11-30T07:57:54.004Z,18.48
2023-11-30T08:00:59.191Z,16.15
2023-11-30T08:04:02.183Z,17.15
2023-11-30T08:07:05.845Z,17.90
2023-11-30T08:10:09.424Z,15.80
2023-11-30T08:13:14.587Z,18.73
2023-11-30T08:16:18.858Z,18.13
2023-11-30T08:19:22.468Z,18.80
2023-11-30T08:22:25.993Z,15.77
2023-11-30T08:25:29.498Z,17.00
2023-11-30T08:28:32.403Z,17.83
2023-11-30T08:31:37.914Z,15.88
2023-11-30T08:34:40.909Z,21.98
2023-11-30T08:37:43.785Z,18.27
2023-11-30T08:40:48.402Z,16.48
2023-11-30T08:43:51.296Z,17.77
2023-11-30T08:46:55.977Z,15.57
2023-11-30T08:49:58.924Z,18.83
2023-11-30T08:53:01.803Z,17.65
2023-11-30T08:56:04.859Z,14.75
2023-11-30T08:59:07.777Z,16.38
2023-11-30T09:02:12.167Z,15.10
2023-11-30T09:05:15.268Z,14.38
2023-11-30T09:08:18.248Z,14.70
2023-11-30T09:11:21.441Z,13.70
2023-11-30T09:14:24.382Z,15.27
2023-11-30T09:17:30.585Z,13.98
2023-11-30T09:20:33.535Z,12.98
2023-11-30T09:23:39.195Z,13.27
2023-11-30T09:26:44.536Z,15.30
2023-11-30T09:29:48.864Z,14.80
2023-11-30T09:32:55.868Z,15.00
2023-11-30T09:36:00.470Z,13.80
2023-11-30T09:39:03.912Z,13.93
2023-11-30T09:42:07.402Z,13.65
2023-11-30T09:45:11.561Z,13.30
2023-11-30T09:48:16.477Z,15.85
2023-11-30T09:51:22.374Z,15.15
2023-11-30T09:54:25.352Z,13.48
2023-11-30T09:57:28.380Z,17.15
2023-11-30T10:00:31.485Z,15.43
2023-11-30T10:03:38.728Z,15.02
2023-11-30T10:06:41.725Z,15.50
2023-11-30T10:09:44.708Z,14.52
2023-11-30T10:12:47.660Z,14.35
2023-11-30T10:15:50.764Z,13.73
2023-11-30T10:18:55.301Z,16.02
2023-11-30T10:21:58.371Z,15.73
2023-11-30T10:25:01.293Z,13.73
2023-11-30T10:28:05.232Z,15.15
2023-11-30T10:31:08.369Z,17.20
2023-11-30T10:34:14.077Z,14.40
2023-11-30T10:37:20.543Z,16.58
2023-11-30T10:40:26.410Z,15.88
2023-11-30T10:43:29.980Z,18.17
2023-11-30T10:46:34.620Z,17.00
2023-11-30T10:49:39.205Z,13.05
2023-11-30T10:52:44.617Z,16.23
2023-11-30T10:55:47.764Z,15.00
2023-11-30T10:58:52.473Z,18.70
2023-11-30T11:01:57.724Z,17.05
2023-11-30T11:05:04.925Z,14.73
2023-11-30T11:08:07.777Z,15.43
2023-11-30T11:11:14.221Z,14.23
2023-11-30T11:14:34.043Z,15.07
2023-11-30T11:17:46.790Z,16.02
2023-11-30T11:20:51.105Z,14.50
2023-11-30T11:23:54.057Z,16.05
2023-11-30T11:26:59.588Z,14.93
2023-11-30T11:30:06.781Z,14.57
2023-11-30T11:33:09.874Z,13.60
2023-11-30T11:36:15.566Z,15.23
2023-11-30T11:39:18.699Z,14.20
2023-11-30T11:42:21.664Z,15.50
2023-11-30T11:45:24.950Z,15.85
2023-11-30T11:48:27.948Z,13.90
2023-11-30T11:51:32.318Z,14.93
2023-11-30T11:54:35.291Z,14.57
2023-11-30T11:57:39.134Z,15.57
2023-11-30T12:00:42.103Z,14.10
2023-11-30T12:03:49.290Z,14.98
2023-11-30T12:06:53.643Z,17.73
2023-11-30T12:09:57.810Z,17.50
2023-11-30T12:13:02.356Z,16.00
2023-11-30T12:16:05.926Z,16.52
2023-11-30T12:19:08.861Z,17.15
2023-11-30T12:22:15.183Z,14.05
2023-11-30T12:25:18.721Z,15.93
2023-11-30T12:28:21.598Z,16.92
2023-11-30T12:31:24.541Z,17.35
2023-11-30T12:34:27.476Z,15.98
2023-11-30T12:37:31.759Z,16.75
2023-11-30T12:40:34.746Z,16.48
2023-11-30T12:43:37.685Z,16.33
2023-11-30T12:46:40.927Z,15.98
2023-11-30T12:49:44.188Z,15.90
2023-11-30T12:52:48.923Z,16.63
2023-11-30T12:55:52.044Z,17.55
2023-11-30T12:58:55.346Z,18.35
2023-11-30T13:01:58.597Z,15.60
2023-11-30T13:05:01.495Z,17.75
2023-11-30T13:08:06.467Z,16.92
2023-11-30T13:11:09.764Z,19.25
2023-11-30T13:14:13.348Z,19.67
2023-11-30T13:17:18.225Z,16.65
2023-11-30T13:20:21.203Z,18.73
2023-11-30T13:23:25.901Z,18.35
2023-11-30T13:26:28.913Z,19.80
2023-11-30T13:29:31.789Z,20.70
2023-11-30T13:32:36.684Z,21.65
2023-11-30T13:35:41.000Z,21.33
2023-11-30T13:38:45.417Z,18.75
2023-11-30T13:41:48.364Z,22.05
2023-11-30T13:44:51.233Z,24.63
2023-11-30T13:47:54.185Z,22.20
2023-11-30T13:51:00.832Z,24.42
2023-11-30T13:54:06.842Z,22.13
2023-11-30T13:57:09.830Z,24.65
2023-11-30T14:00:14.193Z,24.20
2023-11-30T14:03:17.701Z,24.38
2023-11-30T14:06:20.989Z,33.97
2023-11-30T14:09:28.108Z,25.20
2023-11-30T14:12:31.072Z,24.20
2023-11-30T14:15:34.289Z,25.85
2023-11-30T14:18:37.304Z,24.60
2023-11-30T14:21:40.341Z,26.40
2023-11-30T14:24:44.784Z,26.38
2023-11-30T14:27:48.721Z,28.08
2023-11-30T14:30:52.210Z,28.33
2023-11-30T14:33:56.694Z,28.02
2023-11-30T14:36:59.598Z,29.80
2023-11-30T14:40:05.349Z,28.30
2023-11-30T14:43:08.369Z,31.45
2023-11-30T14:46:11.278Z,26.15
2023-11-30T14:49:14.320Z,28.27
2023-11-30T14:52:17.207Z,26.10
2023-11-30T14:55:21.940Z,29.95
2023-11-30T14:58:24.955Z,29.77
2023-11-30T15:01:28.329Z,30.52
2023-11-30T15:04:33.000Z,28.98
2023-11-30T15:07:36.104Z,29.13
2023-11-30T15:10:40.400Z,33.25
2023-11-30T15:13:43.398Z,31.77
2023-11-30T15:16:46.353Z,31.20
2023-11-30T15:19:49.245Z,36.60
2023-11-30T15:22:52.183Z,31.35
2023-11-30T15:25:56.439Z,34.03
2023-11-30T15:28:59.375Z,35.38
2023-11-30T15:32:02.269Z,36.47
2023-11-30T15:35:06.045Z,38.30
2023-11-30T15:38:09.305Z,41.15
2023-11-30T15:41:13.540Z,42.95
2023-11-30T15:44:16.438Z,42.40
2023-11-30T15:47:19.545Z,43.72
2023-11-30T15:50:22.524Z,42.78
2023-11-30T15:53:25.481Z,43.35
2023-11-30T15:56:29.730Z,42.55
2023-11-30T15:59:32.690Z,45.03
2023-11-30T16:02:36.163Z,44.90
2023-11-30T16:05:39.801Z,45.15
2023-11-30T16:08:42.798Z,43.88
2023-11-30T16:11:49.876Z,44.05
2023-11-30T16:14:53.058Z,46.15
2023-11-30T16:17:55.996Z,46.97
2023-11-30T16:20:58.949Z,47.90
2023-11-30T16:24:01.931Z,50.03
2023-11-30T16:27:06.661Z,45.03
2023-11-30T16:30:11.882Z,47.53
2023-11-30T16:33:14.852Z,48.90
2023-11-30T16:36:17.865Z,49.15
2023-11-30T16:39:23.835Z,47.92
2023-11-30T16:42:29.510Z,47.03
2023-11-30T16:45:32.578Z,43.78
2023-11-30T16:48:35.580Z,45.22
2023-11-30T16:51:41.662Z,41.60
2023-11-30T16:54:46.856Z,42.45
2023-11-30T16:57:51.239Z,40.90
2023-11-30T17:00:54.226Z,42.50
2023-11-30T17:03:57.331Z,39.83
2023-11-30T17:07:00.674Z,40.88
2023-11-30T17:10:03.805Z,40.78
2023-11-30T17:13:08.429Z,41.75
2023-11-30T17:16:12.193Z,39.25
2023-11-30T17:19:15.425Z,45.30
2023-11-30T17:22:18.292Z,48.60
2023-11-30T17:25:21.850Z,46.17
2023-11-30T17:28:26.174Z,53.72
2023-11-30T17:31:29.094Z,49.50
2023-11-30T17:34:32.476Z,54.78
2023-11-30T17:37:35.478Z,52.15
2023-11-30T17:40:38.369Z,48.60
2023-11-30T17:43:42.820Z,50.17
2023-11-30T17:46:45.884Z,49.60
2023-11-30T17:49:49.086Z,51.60
2023-11-30T17:52:52.122Z,51.50
2023-11-30T17:55:55.020Z,44.53
2023-11-30T17:58:59.230Z,43.65
2023-11-30T18:02:02.645Z,42.13
2023-11-30T18:05:06.372Z,42.17
2023-11-30T18:08:09.256Z,43.33
2023-11-30T18:11:12.140Z,42.25
2023-11-30T18:14:16.435Z,39.05
2023-11-30T18:17:19.412Z,40.38
2023-11-30T18:20:22.300Z,39.72
2023-11-30T18:23:25.164Z,38.67
2023-11-30T18:26:28.094Z,38.97
2023-11-30T18:29:32.401Z,50.42
2023-11-30T18:32:35.346Z,39.95
2023-11-30T18:35:41.108Z,38.03
2023-11-30T18:38:50.426Z,39.70
2023-11-30T18:41:56.719Z,40.90
2023-11-30T18:45:02.901Z,38.65
2023-11-30T18:48:07.670Z,42.95
2023-11-30T18:51:12.869Z,41.00
2023-11-30T18:54:18.828Z,46.85
2023-11-30T18:57:23.898Z,45.90
2023-11-30T19:00:30.211Z,51.47
2023-11-30T19:03:34.273Z,45.17
2023-11-30T19:06:38.785Z,46.55
2023-11-30T19:09:43.380Z,49.30
2023-11-30T19:12:48.220Z,48.35
2023-11-30T19:15:53.888Z,45.45
2023-11-30T19:18:57.951Z,42.83
2023-11-30T19:22:01.793Z,41.42
2023-11-30T19:25:06.939Z,43.25
2023-11-30T19:28:10.941Z,43.55
2023-11-30T19:31:16.957Z,48.60
2023-11-30T19:34:21.874Z,45.90
2023-11-30T19:37:26.367Z,50.53
2023-11-30T19:40:31.075Z,51.53
2023-11-30T19:43:35.978Z,53.25
2023-11-30T19:46:42.536Z,54.58
2023-11-30T19:49:48.006Z,56.67
2023-11-30T19:52:52.539Z,59.97
2023-11-30T19:55:56.788Z,62.53
2023-11-30T19:59:01.482Z,60.47
2023-11-30T20:02:08.146Z,68.50
2023-11-30T20:05:14.038Z,73.88
2023-11-30T20:08:18.715Z,72.67
2023-11-30T20:11:24.093Z,65.50
2023-11-30T20:14:28.672Z,77.23
2023-11-30T20:17:35.157Z,75.70
2023-11-30T20:20:39.758Z,78.60
2023-11-30T20:23:44.335Z,84.20
2023-11-30T20:26:49.829Z,79.20
2023-11-30T20:29:54.275Z,75.65
2023-11-30T20:33:00.908Z,71.68
2023-11-30T20:36:05.056Z,76.43
2023-11-30T20:39:09.652Z,76.90
2023-11-30T20:42:13.995Z,86.90
2023-11-30T20:45:17.841Z,95.18
2023-11-30T20:48:23.004Z,93.07
2023-11-30T20:51:26.389Z,115.03
2023-11-30T20:54:31.619Z,121.17
2023-11-30T20:57:36.379Z,123.20
2023-11-30T21:00:39.363Z,120.38
2023-11-30T21:03:43.925Z,127.13
2023-11-30T21:06:46.861Z,133.63
2023-11-30T21:09:49.792Z,127.53
2023-11-30T21:12:52.729Z,120.40
2023-11-30T21:15:55.657Z,129.77
2023-11-30T21:19:00.021Z,131.90
2023-11-30T21:22:03.105Z,148.80
2023-11-30T21:25:06.427Z,122.97
2023-11-30T21:28:10.037Z,119.40
2023-11-30T21:31:13.251Z,154.97
2023-11-30T21:34:17.610Z,145.68
2023-11-30T21:37:20.476Z,151.45
2023-11-30T21:40:23.402Z,140.85
2023-11-30T21:43:27.678Z,139.05
2023-11-30T21:46:30.572Z,149.73
2023-11-30T21:49:34.843Z,134.23
2023-11-30T21:52:37.992Z,183.70
2023-11-30T21:55:41.180Z,132.95
2023-11-30T21:58:44.108Z,136.18
2023-11-30T22:01:47.316Z,122.13
2023-11-30T22:04:51.862Z,119.28
2023-11-30T22:07:54.788Z,120.25
2023-11-30T22:10:57.728Z,115.28
2023-11-30T22:14:00.676Z,124.63
2023-11-30T22:17:04.545Z,115.95
2023-11-30T22:20:10.550Z,121.32
2023-11-30T22:23:14.178Z,124.53
2023-11-30T22:26:17.132Z,107.97
2023-11-30T22:29:20.038Z,120.28
2023-11-30T22:32:22.974Z,128.90
2023-11-30T22:35:28.129Z,125.43
2023-11-30T22:38:35.400Z,129.20
2023-11-30T22:41:41.654Z,116.07
2023-11-30T22:44:44.623Z,120.93
2023-11-30T22:47:47.540Z,121.63
2023-11-30T22:50:51.929Z,115.60
2023-11-30T22:53:54.834Z,118.57
2023-11-30T22:56:57.737Z,115.80
2023-11-30T23:00:00.708Z,108.10
2023-11-30T23:03:03.923Z,104.53
2023-11-30T23:06:09.087Z,109.88
2023-11-30T23:09:11.996Z,120.15
2023-11-30T23:12:15.749Z,110.78
2023-11-30T23:15:18.669Z,124.00
2023-11-30T23:18:21.558Z,109.88
2023-11-30T23:21:26.625Z,128.65
2023-11-30T23:24:32.067Z,125.25
2023-11-30T23:27:35.322Z,126.68
2023-11-30T23:30:38.372Z,144.82
2023-11-30T23:33:41.405Z,116.95
2023-11-30T23:36:45.716Z,153.68
2023-11-30T23:39:50.410Z,168.48
2023-11-30T23:42:53.276Z,156.30
2023-11-30T23:45:56.213Z,137.40
2023-11-30T23:48:59.208Z,152.48
2023-11-30T23:52:03.572Z,144.77
2023-11-30T23:55:07.188Z,203.75
2023-11-30T23:58:10.249Z,172.35
